createdAt,value
2022-10-01T00:01:27.399Z,57.15
2022-10-01T00:03:55.861Z,53.38
2022-10-01T00:06:24.956Z,59.55
2022-10-01T00:08:52.180Z,57.88
2022-10-01T00:11:25.471Z,126.50
2022-10-01T00:13:54.119Z,130.32
2022-10-01T00:16:24.602Z,131.80
2022-10-01T00:18:55.600Z,125.75
2022-10-01T00:21:32.174Z,122.43
2022-10-01T00:24:04.850Z,92.90
2022-10-01T00:26:34.562Z,78.13
2022-10-01T00:29:06.277Z,68.68
2022-10-01T00:31:34.306Z,55.15
2022-10-01T00:34:05.297Z,52.33
2022-10-01T00:36:33.552Z,49.72
2022-10-01T00:39:01.106Z,48.63
2022-10-01T00:41:30.798Z,49.78
2022-10-01T00:44:01.495Z,50.17
2022-10-01T00:46:44.701Z,53.80
2022-10-01T00:49:19.555Z,53.08
2022-10-01T00:51:58.128Z,53.83
2022-10-01T00:54:37.355Z,51.67
2022-10-01T00:57:07.598Z,51.00
2022-10-01T00:59:36.567Z,53.75
2022-10-01T01:02:04.058Z,50.50
2022-10-01T01:04:31.737Z,56.00
2022-10-01T01:07:03.002Z,56.95
2022-10-01T01:09:34.342Z,52.95
2022-10-01T01:12:14.535Z,51.40
2022-10-01T01:14:58.170Z,52.45
2022-10-01T01:17:46.330Z,51.53
2022-10-01T01:20:44.491Z,53.70
2022-10-01T01:23:14.654Z,58.15
2022-10-01T01:26:03.056Z,61.65
2022-10-01T01:28:41.018Z,67.15
2022-10-01T01:31:14.710Z,62.38
2022-10-01T01:33:46.811Z,61.90
2022-10-01T01:36:38.191Z,58.10
2022-10-01T01:39:10.381Z,55.38
2022-10-01T01:41:44.126Z,56.78
2022-10-01T01:44:12.865Z,58.90
2022-10-01T01:46:44.436Z,62.38
2022-10-01T01:49:14.470Z,57.45
2022-10-01T01:51:50.821Z,56.50
2022-10-01T01:54:19.920Z,56.33
2022-10-01T01:56:50.108Z,61.95
2022-10-01T01:59:19.746Z,61.00
2022-10-01T02:01:48.346Z,59.80
2022-10-01T02:04:23.932Z,56.55
2022-10-01T02:07:16.862Z,59.45
2022-10-01T02:09:56.324Z,55.60
2022-10-01T02:12:30.526Z,59.53
2022-10-01T02:15:10.237Z,57.58
2022-10-01T02:17:58.700Z,55.15
2022-10-01T02:20:26.115Z,52.97
2022-10-01T02:23:16.527Z,52.53
2022-10-01T02:25:51.625Z,57.25
2022-10-01T02:28:23.760Z,56.50
2022-10-01T02:30:55.033Z,55.38
2022-10-01T02:33:30.123Z,56.17
2022-10-01T02:36:00.420Z,57.00
2022-10-01T02:38:31.785Z,60.88
2022-10-01T02:41:03.121Z,67.05
2022-10-01T02:43:39.418Z,66.40
2022-10-01T02:46:39.450Z,61.60
2022-10-01T02:49:09.650Z,71.00
2022-10-01T02:51:54.910Z,72.30
2022-10-01T02:54:35.595Z,73.88
2022-10-01T02:57:21.621Z,74.25
2022-10-01T02:59:50.435Z,71.82
2022-10-01T03:02:19.460Z,72.80
2022-10-01T03:04:49.512Z,73.80
2022-10-01T03:07:16.953Z,70.63
2022-10-01T03:09:44.632Z,67.13
2022-10-01T03:12:12.366Z,65.20
2022-10-01T03:14:39.553Z,62.97
2022-10-01T03:17:11.296Z,67.13
2022-10-01T03:19:38.632Z,62.60
2022-10-01T03:22:06.656Z,55.45
2022-10-01T03:24:34.531Z,53.30
2022-10-01T03:27:02.190Z,51.05
2022-10-01T03:29:29.686Z,50.55
2022-10-01T03:31:57.141Z,46.85
2022-10-01T03:34:24.523Z,46.47
2022-10-01T03:36:54.767Z,45.33
2022-10-01T03:39:22.561Z,46.00
2022-10-01T03:41:50.232Z,49.15
2022-10-01T03:44:17.861Z,50.70
2022-10-01T03:46:45.386Z,53.40
2022-10-01T03:49:12.556Z,48.70
2022-10-01T03:51:42.543Z,59.70
2022-10-01T03:54:10.056Z,46.55
2022-10-01T03:56:37.971Z,46.03
2022-10-01T03:59:05.269Z,45.72
2022-10-01T04:01:33.217Z,38.97
2022-10-01T04:04:01.026Z,39.58
2022-10-01T04:06:28.253Z,35.80
2022-10-01T04:08:55.742Z,40.10
2022-10-01T04:11:23.310Z,41.80
2022-10-01T04:13:50.911Z,45.05
2022-10-01T04:16:18.522Z,48.13
2022-10-01T04:18:46.012Z,50.17
2022-10-01T04:21:13.201Z,49.65
2022-10-01T04:23:40.790Z,48.33
2022-10-01T04:26:08.395Z,48.35
2022-10-01T04:28:35.962Z,47.78
2022-10-01T04:31:22.119Z,47.67
2022-10-01T04:33:49.440Z,49.05
2022-10-01T04:36:17.496Z,48.88
2022-10-01T04:38:44.658Z,49.17
2022-10-01T04:41:13.898Z,48.72
2022-10-01T04:43:42.327Z,48.67
2022-10-01T04:46:09.665Z,47.17
2022-10-01T04:48:37.193Z,47.90
2022-10-01T04:51:04.462Z,47.72
2022-10-01T04:53:34.236Z,56.58
2022-10-01T04:56:02.142Z,59.92
2022-10-01T04:58:29.310Z,61.42
2022-10-01T05:01:01.037Z,59.60
2022-10-01T05:03:31.950Z,59.35
2022-10-01T05:05:59.162Z,62.80
2022-10-01T05:08:26.620Z,66.78
2022-10-01T05:10:53.986Z,67.80
2022-10-01T05:13:21.326Z,59.10
2022-10-01T05:15:52.427Z,65.72
2022-10-01T05:18:19.996Z,67.15
2022-10-01T05:20:47.327Z,53.95
2022-10-01T05:23:17.236Z,49.92
2022-10-01T05:25:47.311Z,43.08
2022-10-01T05:28:21.347Z,40.83
2022-10-01T05:30:51.290Z,40.38
2022-10-01T05:33:18.802Z,40.22
2022-10-01T05:35:46.067Z,38.60
2022-10-01T05:38:13.510Z,30.67
2022-10-01T05:40:45.855Z,28.95
2022-10-01T05:43:13.200Z,23.63
2022-10-01T05:45:41.304Z,22.17
2022-10-01T05:48:09.556Z,22.45
2022-10-01T05:50:42.705Z,26.20
2022-10-01T05:53:11.852Z,28.10
2022-10-01T05:55:39.235Z,24.08
2022-10-01T05:58:12.150Z,23.65
2022-10-01T06:00:41.583Z,24.85
2022-10-01T06:03:13.052Z,25.52
2022-10-01T06:05:40.829Z,26.27
2022-10-01T06:08:09.888Z,28.45
2022-10-01T06:10:38.611Z,27.65
2022-10-01T06:13:06.781Z,29.30
2022-10-01T06:15:38.049Z,29.90
2022-10-01T06:18:07.267Z,27.95
2022-10-01T06:20:35.446Z,25.88
2022-10-01T06:23:05.947Z,25.63
2022-10-01T06:25:35.220Z,25.40
2022-10-01T06:28:03.317Z,25.92
2022-10-01T06:30:34.317Z,26.27
2022-10-01T06:33:06.340Z,25.38
2022-10-01T06:35:35.564Z,21.40
2022-10-01T06:38:03.230Z,22.92
2022-10-01T06:40:31.385Z,23.23
2022-10-01T06:43:00.119Z,21.95
2022-10-01T06:45:29.090Z,21.52
2022-10-01T06:48:03.916Z,22.00
2022-10-01T06:50:33.506Z,24.23
2022-10-01T06:53:02.934Z,15.77
2022-10-01T06:55:32.670Z,16.17
2022-10-01T06:58:04.036Z,16.33
2022-10-01T07:00:33.240Z,17.05
2022-10-01T07:03:01.260Z,21.52
2022-10-01T07:05:28.475Z,15.52
2022-10-01T07:07:55.806Z,15.52
2022-10-01T07:10:23.521Z,15.93
2022-10-01T07:12:51.195Z,14.98
2022-10-01T07:15:22.739Z,15.20
2022-10-01T07:17:51.417Z,14.95
2022-10-01T07:20:20.697Z,14.57
2022-10-01T07:22:49.285Z,13.02
2022-10-01T07:25:17.150Z,13.88
2022-10-01T07:27:44.641Z,15.88
2022-10-01T07:30:12.250Z,14.52
2022-10-01T07:32:39.645Z,12.07
2022-10-01T07:35:09.206Z,12.40
2022-10-01T07:37:36.570Z,13.23
2022-10-01T07:40:07.389Z,14.38
2022-10-01T07:42:35.982Z,22.42
2022-10-01T07:45:06.921Z,28.88
2022-10-01T07:47:34.891Z,25.00
2022-10-01T07:50:02.277Z,13.95
2022-10-01T07:52:29.555Z,12.45
2022-10-01T07:54:57.311Z,12.52
2022-10-01T07:57:24.524Z,13.98
2022-10-01T07:59:55.691Z,14.40
2022-10-01T08:02:23.660Z,11.68
2022-10-01T08:05:10.037Z,11.52
2022-10-01T08:07:37.636Z,12.27
2022-10-01T08:10:05.262Z,11.52
2022-10-01T08:12:32.441Z,11.65
2022-10-01T08:14:59.978Z,12.38
2022-10-01T08:17:29.465Z,12.27
2022-10-01T08:19:56.998Z,14.45
2022-10-01T08:22:24.710Z,19.52
2022-10-01T08:24:51.890Z,16.23
2022-10-01T08:27:19.224Z,12.50
2022-10-01T08:29:48.355Z,8.90
2022-10-01T08:32:15.633Z,7.07
2022-10-01T08:34:43.118Z,6.35
2022-10-01T08:37:10.487Z,6.43
2022-10-01T08:39:37.681Z,5.30
2022-10-01T08:42:23.445Z,5.45
2022-10-01T08:44:52.361Z,6.13
2022-10-01T08:47:31.156Z,4.68
2022-10-01T08:50:03.233Z,4.20
2022-10-01T08:52:35.112Z,3.60
2022-10-01T08:55:13.200Z,3.22
2022-10-01T08:57:47.511Z,3.83
2022-10-01T09:00:17.460Z,3.58
2022-10-01T09:02:46.985Z,3.90
2022-10-01T09:05:21.185Z,3.60
2022-10-01T09:08:04.136Z,2.05
2022-10-01T09:10:40.586Z,2.15
2022-10-01T09:13:26.846Z,7.82
2022-10-01T09:16:24.975Z,2.30
2022-10-01T09:19:04.585Z,1.73
2022-10-01T09:22:00.203Z,2.03
2022-10-01T09:24:41.306Z,2.05
2022-10-01T09:27:16.483Z,2.00
2022-10-01T09:29:54.285Z,1.75
2022-10-01T09:32:26.441Z,2.20
2022-10-01T09:34:57.217Z,2.17
2022-10-01T09:37:57.159Z,2.42
2022-10-01T09:40:51.240Z,1.70
2022-10-01T09:43:23.546Z,2.03
2022-10-01T09:45:52.235Z,1.48
2022-10-01T09:48:41.860Z,1.40
2022-10-01T09:51:12.370Z,1.90
2022-10-01T09:53:46.486Z,3.65
2022-10-01T09:56:32.403Z,1.65
2022-10-01T09:59:04.990Z,4.45
2022-10-01T10:01:50.340Z,2.05
2022-10-01T10:04:23.841Z,1.70
2022-10-01T10:06:59.730Z,1.80
2022-10-01T10:11:59.528Z,3.10
2022-10-01T10:14:36.845Z,4.32
2022-10-01T10:17:13.511Z,2.15
2022-10-01T10:19:46.005Z,2.03
2022-10-01T10:22:26.507Z,4.07
2022-10-01T10:24:59.110Z,2.47
2022-10-01T10:27:29.612Z,1.83
2022-10-01T10:30:14.710Z,3.25
2022-10-01T10:32:44.398Z,25.02
2022-10-01T10:35:17.802Z,5.97
2022-10-01T10:37:49.361Z,2.17
2022-10-01T10:40:29.552Z,1.60
2022-10-01T10:42:59.358Z,1.70
2022-10-01T10:45:37.844Z,1.90
2022-10-01T10:48:12.031Z,1.25
2022-10-01T10:50:43.243Z,1.88
2022-10-01T10:53:22.947Z,1.80
2022-10-01T10:56:01.803Z,3.00
2022-10-01T10:58:34.984Z,2.88
2022-10-01T11:01:20.403Z,2.15
2022-10-01T11:03:50.693Z,2.60
2022-10-01T11:06:19.381Z,2.95
2022-10-01T11:08:57.324Z,2.50
2022-10-01T11:11:50.600Z,1.85
2022-10-01T11:14:33.167Z,2.47
2022-10-01T11:17:13.156Z,5.03
2022-10-01T11:20:02.910Z,3.40
2022-10-01T11:22:44.962Z,3.10
2022-10-01T11:25:27.075Z,2.10
2022-10-01T11:28:25.025Z,3.20
2022-10-01T11:31:24.937Z,2.22
2022-10-01T11:34:02.060Z,3.75
2022-10-01T11:36:56.340Z,4.55
2022-10-01T11:39:27.762Z,5.03
2022-10-01T11:42:10.540Z,4.45
2022-10-01T11:45:00.543Z,3.95
2022-10-01T11:47:37.654Z,3.80
2022-10-01T11:50:19.851Z,4.22
2022-10-01T11:52:58.477Z,4.70
2022-10-01T11:56:03.300Z,5.72
2022-10-01T11:58:54.950Z,5.82
2022-10-01T12:01:49.604Z,4.82
2022-10-01T12:04:39.123Z,5.18
2022-10-01T12:07:11.940Z,5.65
2022-10-01T12:09:47.612Z,5.47
2022-10-01T12:12:23.741Z,5.68
2022-10-01T12:15:06.295Z,6.28
2022-10-01T12:17:56.731Z,5.55
2022-10-01T12:20:44.780Z,6.07
2022-10-01T12:23:30.410Z,4.60
2022-10-01T12:26:10.597Z,4.30
2022-10-01T12:28:54.585Z,5.50
2022-10-01T12:31:33.576Z,5.68
2022-10-01T12:34:26.087Z,5.38
2022-10-01T12:37:30.121Z,5.53
2022-10-01T12:40:13.665Z,5.65
2022-10-01T12:43:04.269Z,7.97
2022-10-01T12:46:03.378Z,9.73
2022-10-01T12:49:01.032Z,12.70
2022-10-01T12:51:53.329Z,13.60
2022-10-01T12:54:51.661Z,6.63
2022-10-01T12:57:46.032Z,5.50
2022-10-01T13:00:25.926Z,5.13
2022-10-01T13:02:53.763Z,5.57
2022-10-01T13:05:46.745Z,5.47
2022-10-01T13:08:33.493Z,5.60
2022-10-01T13:11:12.561Z,3.38
2022-10-01T13:13:41.320Z,2.60
2022-10-01T13:16:17.478Z,2.90
2022-10-01T13:18:59.986Z,2.50
2022-10-01T13:21:32.985Z,3.25
2022-10-01T13:24:24.193Z,3.75
2022-10-01T13:26:58.705Z,3.05
2022-10-01T13:29:55.222Z,2.95
2022-10-01T13:32:34.532Z,2.75
2022-10-01T13:35:24.941Z,3.38
2022-10-01T13:37:52.951Z,3.90
2022-10-01T13:40:28.555Z,2.15
2022-10-01T13:43:21.535Z,2.10
2022-10-01T13:45:52.140Z,2.13
2022-10-01T13:48:21.615Z,1.30
2022-10-01T13:51:04.514Z,1.50
2022-10-01T13:53:44.191Z,1.58
2022-10-01T13:56:14.988Z,1.40
2022-10-01T13:58:46.510Z,1.55
2022-10-01T14:01:21.342Z,1.00
2022-10-01T14:04:05.365Z,1.65
2022-10-01T14:06:36.456Z,1.00
2022-10-01T14:09:13.230Z,1.45
2022-10-01T14:12:04.263Z,11.07
2022-10-01T14:14:54.466Z,2.47
2022-10-01T14:17:25.590Z,1.65
2022-10-01T14:19:55.773Z,3.17
2022-10-01T14:22:32.233Z,2.72
2022-10-01T14:25:58.568Z,11.98
2022-10-01T14:28:57.493Z,19.98
2022-10-01T14:31:51.249Z,5.60
2022-10-01T14:34:39.036Z,2.83
2022-10-01T14:37:16.213Z,3.72
2022-10-01T14:39:48.073Z,9.88
2022-10-01T14:42:19.031Z,18.73
2022-10-01T14:44:47.743Z,5.45
2022-10-01T14:47:28.361Z,5.85
2022-10-01T14:49:56.374Z,8.35
2022-10-01T14:52:30.868Z,12.45
2022-10-01T14:55:01.654Z,6.03
2022-10-01T14:57:36.025Z,6.38
2022-10-01T15:00:18.077Z,6.10
2022-10-01T15:03:02.672Z,5.05
2022-10-01T15:05:36.219Z,4.00
2022-10-01T15:08:13.655Z,13.50
2022-10-01T15:11:01.585Z,6.38
2022-10-01T15:13:32.853Z,6.65
2022-10-01T15:16:01.384Z,3.60
2022-10-01T15:18:30.123Z,3.20
2022-10-01T15:21:05.861Z,3.30
2022-10-01T15:23:38.882Z,3.03
2022-10-01T15:26:11.584Z,3.58
2022-10-01T15:28:39.048Z,5.03
2022-10-01T15:31:08.521Z,3.40
2022-10-01T15:33:43.278Z,3.08
2022-10-01T15:36:18.749Z,3.38
2022-10-01T15:38:47.994Z,2.70
2022-10-01T15:41:33.352Z,2.25
2022-10-01T15:44:05.845Z,2.20
2022-10-01T15:46:35.665Z,2.17
2022-10-01T15:49:17.508Z,2.90
2022-10-01T15:52:11.765Z,2.45
2022-10-01T15:54:42.160Z,3.10
2022-10-01T15:57:16.035Z,3.00
2022-10-01T15:59:43.721Z,3.47
2022-10-01T16:02:21.445Z,3.67
2022-10-01T16:04:52.986Z,4.10
2022-10-01T16:07:26.442Z,4.60
2022-10-01T16:09:59.149Z,3.97
2022-10-01T16:12:28.500Z,105.50
2022-10-01T16:15:04.290Z,9.45
2022-10-01T16:17:37.313Z,5.65
2022-10-01T16:20:16.823Z,3.78
2022-10-01T16:22:44.780Z,2.75
2022-10-01T16:25:24.294Z,2.65
2022-10-01T16:28:01.222Z,2.65
2022-10-01T16:30:31.959Z,3.10
2022-10-01T16:33:02.658Z,3.72
2022-10-01T16:35:32.780Z,2.42
2022-10-01T16:38:00.328Z,2.70
2022-10-01T16:40:32.198Z,2.50
2022-10-01T16:43:00.991Z,3.20
2022-10-01T16:45:35.018Z,2.33
2022-10-01T16:48:02.715Z,3.65
2022-10-01T16:50:30.339Z,4.00
2022-10-01T16:53:01.412Z,2.60
2022-10-01T16:55:36.061Z,2.58
2022-10-01T16:58:04.859Z,2.20
2022-10-01T17:00:33.132Z,2.60
2022-10-01T17:03:00.820Z,2.33
2022-10-01T17:05:31.733Z,1.90
2022-10-01T17:08:01.378Z,1.95
2022-10-01T17:10:32.540Z,2.00
2022-10-01T17:12:59.998Z,2.13
2022-10-01T17:15:28.411Z,2.30
2022-10-01T17:17:57.799Z,2.63
2022-10-01T17:20:28.669Z,2.63
2022-10-01T17:22:59.044Z,3.05
2022-10-01T17:25:34.558Z,2.95
2022-10-01T17:28:04.463Z,3.88
2022-10-01T17:30:33.040Z,7.07
2022-10-01T17:33:01.705Z,9.98
2022-10-01T17:35:30.516Z,9.45
2022-10-01T17:37:58.839Z,6.68
2022-10-01T17:40:26.119Z,6.10
2022-10-01T17:42:53.735Z,6.20
2022-10-01T17:45:21.330Z,6.63
2022-10-01T17:47:50.746Z,6.07
2022-10-01T17:50:18.710Z,6.47
2022-10-01T17:52:52.754Z,8.43
2022-10-01T17:55:21.983Z,7.28
2022-10-01T17:57:50.074Z,9.00
2022-10-01T18:00:17.964Z,7.50
2022-10-01T18:02:46.108Z,6.32
2022-10-01T18:05:15.236Z,9.50
2022-10-01T18:07:42.648Z,10.07
2022-10-01T18:10:13.538Z,6.60
2022-10-01T18:12:41.302Z,5.05
2022-10-01T18:15:09.658Z,6.93
2022-10-01T18:17:43.225Z,5.43
2022-10-01T18:20:15.120Z,7.28
2022-10-01T18:22:45.458Z,8.40
2022-10-01T18:25:15.979Z,7.07
2022-10-01T18:27:43.782Z,6.50
2022-10-01T18:30:11.544Z,6.03
2022-10-01T18:33:05.504Z,6.05
2022-10-01T18:35:34.870Z,9.73
2022-10-01T18:38:20.757Z,9.98
2022-10-01T18:40:56.863Z,8.77
2022-10-01T18:43:26.428Z,8.95
2022-10-01T18:46:22.095Z,6.78
2022-10-01T18:48:58.663Z,4.72
2022-10-01T18:51:56.619Z,5.53
2022-10-01T18:54:51.429Z,4.15
2022-10-01T18:57:18.875Z,5.25
2022-10-01T18:59:49.619Z,5.05
2022-10-01T19:02:29.013Z,4.18
2022-10-01T19:05:29.985Z,4.88
2022-10-01T19:08:06.248Z,8.52
2022-10-01T19:10:47.571Z,5.85
2022-10-01T19:13:42.921Z,7.65
2022-10-01T19:16:26.203Z,8.77
2022-10-01T19:19:03.014Z,9.55
2022-10-01T19:21:52.815Z,12.88
2022-10-01T19:24:43.403Z,16.00
2022-10-01T19:27:29.423Z,13.00
2022-10-01T19:30:08.700Z,9.70
2022-10-01T19:33:05.045Z,9.38
2022-10-01T19:35:40.130Z,10.17
2022-10-01T19:38:19.073Z,8.75
2022-10-01T19:40:52.299Z,8.52
2022-10-01T19:43:30.326Z,8.95
2022-10-01T19:46:06.418Z,8.77
2022-10-01T19:48:52.663Z,6.25
2022-10-01T19:51:25.056Z,4.50
2022-10-01T19:54:01.124Z,3.85
2022-10-01T19:56:34.713Z,4.95
2022-10-01T19:59:11.076Z,4.82
2022-10-01T20:01:41.759Z,4.28
2022-10-01T20:04:18.516Z,4.53
2022-10-01T20:06:47.318Z,4.68
2022-10-01T20:09:27.545Z,6.70
2022-10-01T20:12:19.854Z,4.75
2022-10-01T20:15:05.949Z,3.58
2022-10-01T20:17:39.274Z,2.60
2022-10-01T20:20:31.428Z,2.17
2022-10-01T20:23:08.488Z,1.60
2022-10-01T20:25:49.133Z,1.50
2022-10-01T20:28:31.422Z,1.70
2022-10-01T20:31:11.373Z,1.50
2022-10-01T20:34:04.301Z,1.10
2022-10-01T20:37:08.507Z,1.40
2022-10-01T20:39:48.787Z,1.50
2022-10-01T20:42:24.922Z,1.70
2022-10-01T20:44:56.789Z,1.48
2022-10-01T20:47:46.849Z,1.40
2022-10-01T20:50:32.653Z,1.30
2022-10-01T20:53:17.713Z,1.23
2022-10-01T20:55:53.202Z,1.30
2022-10-01T20:58:25.165Z,1.50
2022-10-01T21:00:58.586Z,1.35
2022-10-01T21:03:32.253Z,1.52
2022-10-01T21:06:12.105Z,1.10
2022-10-01T21:09:06.558Z,1.90
2022-10-01T21:12:02.349Z,1.63
2022-10-01T21:14:54.538Z,1.38
2022-10-01T21:17:45.308Z,1.30
2022-10-01T21:20:30.931Z,1.58
2022-10-01T21:23:14.892Z,1.30
2022-10-01T21:25:48.478Z,1.52
2022-10-01T21:28:30.189Z,1.40
2022-10-01T21:31:15.722Z,1.88
2022-10-01T21:34:11.113Z,1.98
2022-10-01T21:37:10.026Z,1.58
2022-10-01T21:39:59.119Z,1.75
2022-10-01T21:42:38.534Z,1.70
2022-10-01T21:45:35.159Z,1.52
2022-10-01T21:50:50.365Z,2.70
2022-10-01T21:53:29.162Z,2.33
2022-10-01T21:56:41.384Z,2.92
2022-10-01T21:59:33.675Z,2.60
2022-10-01T22:02:30.602Z,1.70
2022-10-01T22:08:06.741Z,2.03
2022-10-01T22:10:42.410Z,1.52
2022-10-01T22:13:17.863Z,1.20
2022-10-01T22:15:46.954Z,1.50
2022-10-01T22:18:52.163Z,1.23
2022-10-01T22:21:38.429Z,1.50
2022-10-01T22:24:16.258Z,1.02
2022-10-01T22:26:54.105Z,1.45
2022-10-01T22:29:31.417Z,1.40
2022-10-01T22:32:03.229Z,1.10
2022-10-01T22:34:41.089Z,1.40
2022-10-01T22:37:17.783Z,1.33
2022-10-01T22:39:52.642Z,0.90
2022-10-01T22:42:29.041Z,1.30
2022-10-01T22:45:03.151Z,1.35
2022-10-01T22:47:30.620Z,1.02
2022-10-01T22:50:28.879Z,1.15
2022-10-01T22:53:05.049Z,1.15
2022-10-01T22:55:44.650Z,1.30
2022-10-01T22:58:24.954Z,1.33
2022-10-01T23:01:23.018Z,1.50
2022-10-01T23:04:07.793Z,1.58
2022-10-01T23:07:21.503Z,1.30
2022-10-01T23:10:10.346Z,1.08
2022-10-01T23:13:05.526Z,0.80
2022-10-01T23:15:50.345Z,0.70
2022-10-01T23:18:54.655Z,0.80
2022-10-01T23:21:24.971Z,0.98
2022-10-01T23:24:07.519Z,1.50
2022-10-01T23:26:57.053Z,0.93
2022-10-01T23:29:49.226Z,0.93
2022-10-01T23:32:29.018Z,0.98
2022-10-01T23:35:18.951Z,1.10
2022-10-01T23:37:58.554Z,1.45
2022-10-01T23:40:35.951Z,1.23
2022-10-01T23:43:23.982Z,1.25
2022-10-01T23:46:04.201Z,3.35
2022-10-01T23:48:44.790Z,1.15
2022-10-01T23:51:20.713Z,2.03
2022-10-01T23:53:57.360Z,1.52
2022-10-01T23:56:51.579Z,1.17
2022-10-01T23:59:35.721Z,1.38
